createdAt,value
2023-04-17T00:01:48.427Z,8.62
2023-04-17T00:04:15.399Z,8.65
2023-04-17T00:06:45.196Z,8.75
2023-04-17T00:09:12.888Z,8.75
2023-04-17T00:11:40.182Z,8.73
2023-04-17T00:14:07.552Z,8.74
2023-04-17T00:16:34.230Z,8.69
2023-04-17T00:19:01.112Z,8.70
2023-04-17T00:21:30.203Z,8.73
2023-04-17T00:23:57.075Z,8.68
2023-04-17T00:26:24.186Z,8.75
2023-04-17T00:28:55.276Z,8.79
2023-04-17T00:31:22.170Z,8.78
2023-04-17T00:33:48.827Z,8.84
2023-04-17T00:36:15.897Z,8.79
2023-04-17T00:38:43.030Z,8.81
2023-04-17T00:41:09.678Z,8.78
2023-04-17T00:43:36.490Z,8.88
2023-04-17T00:46:04.183Z,8.86
2023-04-17T00:48:31.334Z,8.85
2023-04-17T00:51:02.278Z,8.82
2023-04-17T00:53:31.404Z,8.86
2023-04-17T00:56:02.117Z,8.86
2023-04-17T00:58:28.932Z,8.90
2023-04-17T01:00:57.035Z,8.87
2023-04-17T01:03:24.316Z,8.84
2023-04-17T01:05:52.474Z,8.77
2023-04-17T01:08:19.375Z,8.69
2023-04-17T01:10:46.227Z,8.66
2023-04-17T01:13:13.978Z,8.70
2023-04-17T01:15:40.986Z,8.74
2023-04-17T01:18:07.813Z,8.79
2023-04-17T01:20:35.002Z,8.80
2023-04-17T01:23:22.195Z,8.77
2023-04-17T01:25:48.785Z,8.77
2023-04-17T01:28:15.883Z,8.71
2023-04-17T01:30:42.456Z,8.73
2023-04-17T01:33:09.350Z,8.78
2023-04-17T01:35:35.936Z,8.72
2023-04-17T01:38:03.128Z,8.73
2023-04-17T01:40:30.186Z,8.76
2023-04-17T01:42:56.740Z,8.75
2023-04-17T01:45:23.796Z,8.77
2023-04-17T01:47:51.960Z,8.77
2023-04-17T01:50:18.457Z,8.80
2023-04-17T01:52:47.028Z,8.71
2023-04-17T01:55:13.860Z,8.73
2023-04-17T01:57:40.701Z,8.85
2023-04-17T02:00:08.342Z,8.78
2023-04-17T02:02:38.570Z,8.75
2023-04-17T02:05:05.702Z,8.61
2023-04-17T02:07:32.219Z,8.63
2023-04-17T02:09:58.834Z,8.60
2023-04-17T02:12:25.630Z,8.63
2023-04-17T02:14:52.608Z,8.56
2023-04-17T02:17:19.178Z,8.68
2023-04-17T02:19:46.054Z,8.65
2023-04-17T02:22:16.285Z,8.64
2023-04-17T02:24:42.973Z,8.71
2023-04-17T02:27:09.504Z,8.66
2023-04-17T02:29:39.826Z,8.64
2023-04-17T02:32:06.373Z,8.68
2023-04-17T02:34:32.994Z,8.65
2023-04-17T02:36:59.666Z,8.69
2023-04-17T02:39:27.527Z,8.66
2023-04-17T02:41:55.046Z,8.61
2023-04-17T02:44:22.051Z,8.68
2023-04-17T02:46:48.720Z,8.70
2023-04-17T02:49:18.067Z,8.63
2023-04-17T02:51:44.897Z,8.66
2023-04-17T02:54:11.969Z,8.60
2023-04-17T02:56:38.451Z,8.60
2023-04-17T02:59:05.145Z,8.50
2023-04-17T03:01:34.071Z,8.61
2023-04-17T03:04:01.113Z,8.63
2023-04-17T03:06:28.578Z,8.62
2023-04-17T03:08:56.086Z,8.56
2023-04-17T03:11:24.762Z,8.45
2023-04-17T03:13:51.243Z,8.49
2023-04-17T03:16:18.482Z,8.57
2023-04-17T03:18:45.014Z,8.60
2023-04-17T03:21:11.648Z,8.54
2023-04-17T03:23:38.548Z,8.54
2023-04-17T03:26:05.451Z,8.55
2023-04-17T03:28:32.632Z,8.55
2023-04-17T03:31:00.915Z,8.56
2023-04-17T03:33:27.596Z,8.60
2023-04-17T03:35:54.277Z,8.63
2023-04-17T03:38:21.456Z,8.51
2023-04-17T03:40:49.007Z,8.43
2023-04-17T03:43:15.702Z,8.54
2023-04-17T03:45:42.830Z,8.52
2023-04-17T03:48:09.685Z,8.49
2023-04-17T03:50:36.307Z,8.53
2023-04-17T03:53:02.940Z,8.41
2023-04-17T03:55:29.631Z,8.40
2023-04-17T03:57:56.326Z,8.48
2023-04-17T04:00:23.207Z,8.47
2023-04-17T04:02:49.950Z,8.38
2023-04-17T04:05:17.162Z,8.35
2023-04-17T04:07:43.917Z,8.32
2023-04-17T04:10:10.980Z,8.37
2023-04-17T04:12:37.573Z,8.28
2023-04-17T04:15:04.630Z,8.26
2023-04-17T04:17:35.573Z,8.26
2023-04-17T04:20:02.214Z,8.28
2023-04-17T04:22:29.983Z,8.22
2023-04-17T04:24:57.661Z,8.24
2023-04-17T04:27:24.157Z,8.25
2023-04-17T04:29:50.879Z,8.23
2023-04-17T04:32:17.492Z,8.23
2023-04-17T04:34:44.864Z,8.19
2023-04-17T04:37:15.740Z,8.17
2023-04-17T04:39:43.450Z,8.12
2023-04-17T04:42:10.986Z,8.06
2023-04-17T04:44:38.679Z,8.12
2023-04-17T04:47:05.526Z,8.14
2023-04-17T04:49:32.134Z,8.02
2023-04-17T04:51:58.996Z,8.10
2023-04-17T04:54:25.745Z,8.01
2023-04-17T04:56:52.458Z,8.08
2023-04-17T04:59:18.975Z,7.99
2023-04-17T05:01:45.722Z,8.03
2023-04-17T05:04:12.613Z,8.07
2023-04-17T05:06:39.275Z,8.08
2023-04-17T05:09:05.765Z,8.03
2023-04-17T05:11:32.832Z,8.09
2023-04-17T05:13:59.520Z,8.04
2023-04-17T05:16:26.224Z,8.08
2023-04-17T05:18:53.123Z,8.07
2023-04-17T05:21:19.742Z,8.08
2023-04-17T05:23:47.014Z,7.99
2023-04-17T05:26:13.908Z,8.01
2023-04-17T05:28:41.312Z,8.03
2023-04-17T05:31:08.136Z,7.97
2023-04-17T05:33:34.707Z,7.92
2023-04-17T05:36:01.750Z,7.94
2023-04-17T05:38:28.403Z,7.84
2023-04-17T05:40:55.600Z,7.96
2023-04-17T05:43:22.354Z,7.93
2023-04-17T05:45:49.993Z,7.94
2023-04-17T05:48:19.578Z,8.00
2023-04-17T05:50:46.328Z,7.95
2023-04-17T05:53:13.046Z,7.96
2023-04-17T05:55:39.939Z,8.01
2023-04-17T05:58:16.896Z,7.90
2023-04-17T06:00:50.472Z,7.88
2023-04-17T06:03:18.139Z,7.93
2023-04-17T06:05:47.238Z,7.98
2023-04-17T06:08:14.245Z,7.99
2023-04-17T06:10:41.267Z,8.03
2023-04-17T06:13:08.049Z,8.04
2023-04-17T06:15:34.719Z,8.04
2023-04-17T06:18:02.323Z,7.93
2023-04-17T06:20:29.057Z,8.07
2023-04-17T06:22:57.325Z,7.98
2023-04-17T06:25:23.838Z,7.91
2023-04-17T06:27:51.416Z,8.00
2023-04-17T06:30:17.988Z,8.13
2023-04-17T06:32:44.760Z,8.12
2023-04-17T06:35:11.642Z,8.13
2023-04-17T06:37:38.236Z,8.22
2023-04-17T06:40:05.130Z,8.23
2023-04-17T06:42:34.311Z,8.26
2023-04-17T06:45:06.715Z,8.16
2023-04-17T06:47:35.749Z,8.24
2023-04-17T06:50:02.262Z,8.32
2023-04-17T06:52:28.911Z,8.40
2023-04-17T06:54:56.101Z,8.36
2023-04-17T06:57:23.014Z,8.36
2023-04-17T06:59:49.685Z,8.39
2023-04-17T07:02:16.706Z,8.45
2023-04-17T07:04:43.601Z,8.51
2023-04-17T07:07:10.203Z,8.50
2023-04-17T07:09:39.807Z,8.52
2023-04-17T07:12:14.112Z,8.67
2023-04-17T07:14:42.569Z,8.65
2023-04-17T07:17:09.281Z,8.66
2023-04-17T07:19:36.430Z,8.64
2023-04-17T07:22:03.623Z,8.68
2023-04-17T07:24:35.244Z,8.72
2023-04-17T07:27:03.810Z,8.67
2023-04-17T07:29:30.884Z,8.65
2023-04-17T07:31:57.530Z,8.72
2023-04-17T07:34:26.163Z,8.71
2023-04-17T07:36:53.004Z,8.71
2023-04-17T07:39:19.552Z,8.83
2023-04-17T07:41:47.726Z,8.69
2023-04-17T07:44:14.633Z,8.72
2023-04-17T07:46:41.637Z,8.76
2023-04-17T07:49:11.416Z,8.74
2023-04-17T07:51:41.270Z,8.78
2023-04-17T07:54:10.376Z,8.72
2023-04-17T08:00:40.169Z,8.85
2023-04-17T08:03:07.105Z,8.85
2023-04-17T08:05:33.955Z,8.90
2023-04-17T08:08:01.438Z,8.99
2023-04-17T08:10:28.793Z,9.03
2023-04-17T08:12:56.570Z,9.11
2023-04-17T08:15:25.363Z,9.10
2023-04-17T08:17:58.109Z,9.15
2023-04-17T08:20:24.774Z,9.26
2023-04-17T08:22:52.090Z,9.27
2023-04-17T08:25:19.328Z,9.41
2023-04-17T08:27:46.159Z,9.42
2023-04-17T08:30:18.511Z,9.48
2023-04-17T08:32:47.293Z,9.48
2023-04-17T08:35:18.089Z,9.62
2023-04-17T08:37:47.110Z,9.72
2023-04-17T08:40:14.126Z,9.93
2023-04-17T08:42:42.044Z,9.88
2023-04-17T08:45:10.707Z,9.84
2023-04-17T08:47:40.980Z,10.11
2023-04-17T08:50:15.665Z,10.06
2023-04-17T08:52:43.044Z,10.05
2023-04-17T08:55:11.389Z,10.08
2023-04-17T08:57:53.342Z,10.21
2023-04-17T09:00:31.434Z,10.23
2023-04-17T09:02:59.600Z,10.47
2023-04-17T09:05:27.213Z,10.51
2023-04-17T09:08:06.570Z,10.54
2023-04-17T09:10:38.930Z,10.69
2023-04-17T09:13:06.509Z,10.94
2023-04-17T09:15:39.485Z,10.96
2023-04-17T09:18:06.461Z,11.05
2023-04-17T09:20:41.122Z,11.00
2023-04-17T09:23:07.807Z,11.02
2023-04-17T09:25:34.523Z,11.18
2023-04-17T09:28:10.825Z,11.13
2023-04-17T09:30:38.970Z,11.27
2023-04-17T09:33:09.302Z,11.20
2023-04-17T09:35:39.879Z,11.60
2023-04-17T09:38:07.934Z,12.09
2023-04-17T09:40:39.359Z,12.26
2023-04-17T09:43:09.634Z,12.11
2023-04-17T09:45:40.634Z,12.19
2023-04-17T09:48:09.551Z,12.45
2023-04-17T09:50:38.650Z,12.57
2023-04-17T09:53:07.673Z,12.31
2023-04-17T09:55:36.278Z,12.05
2023-04-17T09:58:03.771Z,12.69
2023-04-17T10:00:44.408Z,12.29
2023-04-17T10:03:14.266Z,13.18
2023-04-17T10:05:41.801Z,12.84
2023-04-17T10:08:13.387Z,13.36
2023-04-17T10:10:41.644Z,13.66
2023-04-17T10:13:11.619Z,13.09
2023-04-17T10:15:41.141Z,12.69
2023-04-17T10:18:23.449Z,13.13
2023-04-17T10:20:51.487Z,12.88
2023-04-17T10:23:47.645Z,12.69
2023-04-17T10:26:27.336Z,13.04
2023-04-17T10:28:56.166Z,12.44
2023-04-17T10:31:25.619Z,13.71
2023-04-17T10:33:55.704Z,13.45
2023-04-17T10:36:41.548Z,14.56
2023-04-17T10:39:20.634Z,13.67
2023-04-17T10:42:03.510Z,13.46
2023-04-17T10:44:39.150Z,13.02
2023-04-17T10:47:06.925Z,13.47
2023-04-17T10:49:48.633Z,13.28
2023-04-17T10:52:34.571Z,13.53
2023-04-17T10:55:03.951Z,14.06
2023-04-17T10:57:49.580Z,13.63
2023-04-17T11:00:17.178Z,13.98
2023-04-17T11:02:48.200Z,14.33
2023-04-17T11:05:14.933Z,15.26
2023-04-17T11:07:42.852Z,15.15
2023-04-17T11:10:10.967Z,15.58
2023-04-17T11:12:39.318Z,15.40
2023-04-17T11:15:06.438Z,15.30
2023-04-17T11:17:33.193Z,16.11
2023-04-17T11:20:00.168Z,15.07
2023-04-17T11:22:28.370Z,14.99
2023-04-17T11:24:55.244Z,15.13
2023-04-17T11:27:22.369Z,15.12
2023-04-17T11:29:48.918Z,14.91
2023-04-17T11:32:15.608Z,14.20
2023-04-17T11:34:42.590Z,14.33
2023-04-17T11:37:13.368Z,13.89
2023-04-17T11:39:42.015Z,14.56
2023-04-17T11:42:08.638Z,15.01
2023-04-17T11:44:35.183Z,14.60
2023-04-17T11:47:02.003Z,14.20
2023-04-17T11:49:29.892Z,14.54
2023-04-17T11:52:00.912Z,13.98
2023-04-17T11:54:28.538Z,14.06
2023-04-17T11:57:05.266Z,13.79
2023-04-17T11:59:32.034Z,14.28
2023-04-17T12:02:00.834Z,13.67
2023-04-17T12:04:29.296Z,13.35
2023-04-17T12:06:57.976Z,14.48
2023-04-17T12:09:31.715Z,14.16
2023-04-17T12:11:59.269Z,13.87
2023-04-17T12:14:26.502Z,13.33
2023-04-17T12:16:53.391Z,13.62
2023-04-17T12:19:21.867Z,13.61
2023-04-17T12:21:48.423Z,13.76
2023-04-17T12:24:15.538Z,13.40
2023-04-17T12:26:46.864Z,13.79
2023-04-17T12:29:14.171Z,13.41
2023-04-17T12:31:41.281Z,12.61
2023-04-17T12:34:08.019Z,13.26
2023-04-17T12:36:34.916Z,13.56
2023-04-17T12:39:01.637Z,13.48
2023-04-17T12:41:28.179Z,13.17
2023-04-17T12:43:54.831Z,13.12
2023-04-17T12:46:21.702Z,13.18
2023-04-17T12:48:48.252Z,13.03
2023-04-17T12:51:15.253Z,12.68
2023-04-17T12:53:41.734Z,13.23
2023-04-17T12:56:08.329Z,13.26
2023-04-17T12:58:35.049Z,13.14
2023-04-17T13:01:04.756Z,13.02
2023-04-17T13:03:31.339Z,13.13
2023-04-17T13:05:58.883Z,12.93
2023-04-17T13:08:25.309Z,12.94
2023-04-17T13:10:51.891Z,12.73
2023-04-17T13:13:18.541Z,12.86
2023-04-17T13:15:48.012Z,12.74
2023-04-17T13:18:14.718Z,12.71
2023-04-17T13:20:41.354Z,12.89
2023-04-17T13:23:07.948Z,12.81
2023-04-17T13:25:34.549Z,13.39
2023-04-17T13:28:01.696Z,14.24
2023-04-17T13:30:28.250Z,13.69
2023-04-17T13:32:55.121Z,13.43
2023-04-17T13:35:21.555Z,13.95
2023-04-17T13:37:48.140Z,14.64
2023-04-17T13:40:17.509Z,13.81
2023-04-17T13:42:45.398Z,13.53
2023-04-17T13:45:12.478Z,14.51
2023-04-17T13:47:39.260Z,13.83
2023-04-17T13:50:06.536Z,12.84
2023-04-17T13:52:35.688Z,13.21
2023-04-17T13:55:02.537Z,13.48
2023-04-17T13:57:29.126Z,13.44
2023-04-17T13:59:55.794Z,13.68
2023-04-17T14:02:22.527Z,13.93
2023-04-17T14:04:49.349Z,13.43
2023-04-17T14:07:16.376Z,13.59
2023-04-17T14:09:42.908Z,13.28
2023-04-17T14:12:10.876Z,13.73
2023-04-17T14:14:37.509Z,13.61
2023-04-17T14:17:04.278Z,13.80
2023-04-17T14:19:31.228Z,13.87
2023-04-17T14:21:57.854Z,13.79
2023-04-17T14:24:24.459Z,13.84
2023-04-17T14:26:51.143Z,13.96
2023-04-17T14:29:17.782Z,14.03
2023-04-17T14:31:44.422Z,13.83
2023-04-17T14:34:11.163Z,13.85
2023-04-17T14:36:37.786Z,13.97
2023-04-17T14:39:04.485Z,13.74
2023-04-17T14:41:35.953Z,13.72
2023-04-17T14:44:02.529Z,13.86
2023-04-17T14:46:29.272Z,13.77
2023-04-17T14:49:10.002Z,13.70
2023-04-17T14:51:36.716Z,13.89
2023-04-17T14:54:03.431Z,13.98
2023-04-17T14:56:29.983Z,13.97
2023-04-17T14:58:57.615Z,13.98
2023-04-17T15:01:24.066Z,13.59
2023-04-17T15:03:51.265Z,13.93
2023-04-17T15:06:18.963Z,13.30
2023-04-17T15:08:46.258Z,13.33
2023-04-17T15:11:13.097Z,13.69
2023-04-17T15:13:40.639Z,13.64
2023-04-17T15:16:09.265Z,13.45
2023-04-17T15:18:36.274Z,13.15
2023-04-17T15:21:02.755Z,12.99
2023-04-17T15:23:30.071Z,13.21
2023-04-17T15:25:58.000Z,13.30
2023-04-17T15:28:28.596Z,12.92
2023-04-17T15:30:55.989Z,13.17
2023-04-17T15:33:23.177Z,13.11
2023-04-17T15:35:53.986Z,13.02
2023-04-17T15:38:20.557Z,13.13
2023-04-17T15:40:47.402Z,13.12
2023-04-17T15:43:14.054Z,13.09
2023-04-17T15:45:40.973Z,13.08
2023-04-17T15:48:07.552Z,12.98
2023-04-17T15:50:35.467Z,13.21
2023-04-17T15:53:02.097Z,13.33
2023-04-17T15:55:30.961Z,13.28
2023-04-17T15:57:57.573Z,13.09
2023-04-17T16:00:24.146Z,13.14
2023-04-17T16:02:51.925Z,13.23
2023-04-17T16:05:18.874Z,13.01
2023-04-17T16:07:45.706Z,13.14
2023-04-17T16:10:15.749Z,13.24
2023-04-17T16:12:43.364Z,13.20
2023-04-17T16:15:11.438Z,12.84
2023-04-17T16:17:38.101Z,12.72
2023-04-17T16:20:05.018Z,12.46
2023-04-17T16:22:36.176Z,12.37
2023-04-17T16:25:02.992Z,12.02
2023-04-17T16:27:30.297Z,12.03
2023-04-17T16:29:56.845Z,11.98
2023-04-17T16:32:24.663Z,12.01
2023-04-17T16:34:51.513Z,11.93
2023-04-17T16:37:18.075Z,11.91
2023-04-17T16:39:44.890Z,11.88
2023-04-17T16:42:11.656Z,11.96
2023-04-17T16:44:38.100Z,11.87
2023-04-17T16:47:13.406Z,11.79
2023-04-17T16:49:42.989Z,11.84
2023-04-17T16:52:09.767Z,11.89
2023-04-17T16:54:37.015Z,11.94
2023-04-17T16:57:05.305Z,12.05
2023-04-17T16:59:32.283Z,12.12
2023-04-17T17:02:00.121Z,12.12
2023-04-17T17:04:28.421Z,12.17
2023-04-17T17:06:55.158Z,12.18
2023-04-17T17:09:21.781Z,12.14
2023-04-17T17:11:48.326Z,11.94
2023-04-17T17:14:16.237Z,11.51
2023-04-17T17:16:47.168Z,11.62
2023-04-17T17:19:14.759Z,11.62
2023-04-17T17:21:41.742Z,11.53
2023-04-17T17:24:08.327Z,11.51
2023-04-17T17:26:37.090Z,11.53
2023-04-17T17:29:03.827Z,11.53
2023-04-17T17:31:30.503Z,11.43
2023-04-17T17:33:57.813Z,11.42
2023-04-17T17:36:26.360Z,11.38
2023-04-17T17:38:56.050Z,11.30
2023-04-17T17:41:28.888Z,11.27
2023-04-17T17:43:56.604Z,11.24
2023-04-17T17:46:24.433Z,11.11
2023-04-17T17:48:51.144Z,11.05
2023-04-17T17:51:17.699Z,10.96
2023-04-17T17:53:44.165Z,10.89
2023-04-17T17:56:10.610Z,10.81
2023-04-17T17:58:37.066Z,10.75
2023-04-17T18:01:03.821Z,10.72
2023-04-17T18:03:30.728Z,10.60
2023-04-17T18:05:57.876Z,10.61
2023-04-17T18:08:24.359Z,10.63
2023-04-17T18:10:55.407Z,10.53
2023-04-17T18:13:23.398Z,10.42
2023-04-17T18:15:49.991Z,10.38
2023-04-17T18:18:16.531Z,10.29
2023-04-17T18:20:43.033Z,10.26
2023-04-17T18:23:09.520Z,10.19
2023-04-17T18:25:39.627Z,10.13
2023-04-17T18:28:06.668Z,10.07
2023-04-17T18:30:33.801Z,10.02
2023-04-17T18:33:00.729Z,10.00
2023-04-17T18:35:27.904Z,9.92
2023-04-17T18:37:54.498Z,9.93
2023-04-17T18:40:21.197Z,9.86
2023-04-17T18:42:48.056Z,9.79
2023-04-17T18:45:16.188Z,9.71
2023-04-17T18:47:43.121Z,9.65
2023-04-17T18:50:10.369Z,9.48
2023-04-17T18:52:38.721Z,9.44
2023-04-17T18:55:06.180Z,9.35
2023-04-17T18:57:32.816Z,9.19
2023-04-17T18:59:59.381Z,9.14
2023-04-17T19:02:25.891Z,9.01
2023-04-17T19:04:53.445Z,9.08
2023-04-17T19:07:22.247Z,9.11
2023-04-17T19:09:48.915Z,8.91
2023-04-17T19:12:15.427Z,8.76
2023-04-17T19:14:43.025Z,8.83
2023-04-17T19:17:09.645Z,8.76
2023-04-17T19:19:36.430Z,8.77
2023-04-17T19:22:03.578Z,8.69
2023-04-17T19:24:30.535Z,8.65
2023-04-17T19:26:58.027Z,8.63
2023-04-17T19:29:25.320Z,8.61
2023-04-17T19:31:52.124Z,8.58
2023-04-17T19:34:18.712Z,8.49
2023-04-17T19:36:45.477Z,8.48
2023-04-17T19:39:12.758Z,8.41
2023-04-17T19:41:39.630Z,8.38
2023-04-17T19:44:06.129Z,8.36
2023-04-17T19:46:33.263Z,8.39
2023-04-17T19:48:59.919Z,8.43
2023-04-17T19:51:26.673Z,8.37
2023-04-17T19:53:53.755Z,8.28
2023-04-17T19:56:21.488Z,8.17
2023-04-17T19:58:48.276Z,8.29
2023-04-17T20:01:15.190Z,8.24
2023-04-17T20:03:43.910Z,8.22
2023-04-17T20:06:10.730Z,8.20
2023-04-17T20:08:39.516Z,8.20
2023-04-17T20:11:06.762Z,8.19
2023-04-17T20:13:36.491Z,8.19
2023-04-17T20:16:03.172Z,8.23
2023-04-17T20:18:30.287Z,8.19
2023-04-17T20:20:57.596Z,8.20
2023-04-17T20:23:24.873Z,8.22
2023-04-17T20:25:51.772Z,8.23
2023-04-17T20:28:18.762Z,8.29
2023-04-17T20:30:45.518Z,8.21
2023-04-17T20:33:12.237Z,8.30
2023-04-17T20:35:39.437Z,8.23
2023-04-17T20:38:05.975Z,8.22
2023-04-17T20:40:33.049Z,8.08
2023-04-17T20:42:59.753Z,8.09
2023-04-17T20:45:26.801Z,8.07
2023-04-17T20:47:57.033Z,8.04
2023-04-17T20:50:24.853Z,8.07
2023-04-17T20:52:52.160Z,8.10
2023-04-17T20:55:20.431Z,8.04
2023-04-17T20:57:47.467Z,8.01
2023-04-17T21:00:14.132Z,7.98
2023-04-17T21:02:41.477Z,8.04
2023-04-17T21:05:08.527Z,7.99
2023-04-17T21:07:35.389Z,7.99
2023-04-17T21:10:02.139Z,8.03
2023-04-17T21:12:28.821Z,7.97
2023-04-17T21:14:55.661Z,8.01
2023-04-17T21:17:26.169Z,7.99
2023-04-17T21:19:53.059Z,8.07
2023-04-17T21:22:19.810Z,8.12
2023-04-17T21:24:46.534Z,8.05
2023-04-17T21:27:13.101Z,8.13
2023-04-17T21:29:41.424Z,8.00
2023-04-17T21:32:08.400Z,8.13
2023-04-17T21:34:35.078Z,8.08
2023-04-17T21:37:03.886Z,8.14
2023-04-17T21:39:33.072Z,8.12
2023-04-17T21:42:00.380Z,8.15
2023-04-17T21:44:27.129Z,8.14
2023-04-17T21:46:54.201Z,8.19
2023-04-17T21:49:24.565Z,8.25
2023-04-17T21:51:51.429Z,8.23
2023-04-17T21:54:17.936Z,8.17
2023-04-17T21:56:44.419Z,8.25
2023-04-17T21:59:10.786Z,8.15
2023-04-17T22:01:37.647Z,8.13
2023-04-17T22:04:04.353Z,8.18
2023-04-17T22:06:34.455Z,8.25
2023-04-17T22:09:02.069Z,8.24
2023-04-17T22:11:28.670Z,8.18
2023-04-17T22:13:55.494Z,8.22
2023-04-17T22:16:22.341Z,8.24
2023-04-17T22:18:48.857Z,8.29
2023-04-17T22:21:15.682Z,8.20
2023-04-17T22:23:42.637Z,8.17
2023-04-17T22:26:09.182Z,8.25
2023-04-17T22:28:37.049Z,8.14
2023-04-17T22:31:03.589Z,8.16
2023-04-17T22:33:30.420Z,8.19
2023-04-17T22:35:57.220Z,8.17
2023-04-17T22:38:24.201Z,8.01
2023-04-17T22:40:50.898Z,7.99
2023-04-17T22:43:17.817Z,8.01
2023-04-17T22:45:44.694Z,8.04
2023-04-17T22:48:11.585Z,7.92
2023-04-17T22:50:38.365Z,7.90
2023-04-17T22:53:05.865Z,7.92
2023-04-17T22:55:32.687Z,7.90
2023-04-17T22:58:00.159Z,7.83
2023-04-17T23:00:26.785Z,7.77
2023-04-17T23:02:55.999Z,7.75
2023-04-17T23:05:23.110Z,7.75
2023-04-17T23:07:49.787Z,7.62
2023-04-17T23:10:18.297Z,7.60
2023-04-17T23:12:44.939Z,7.62
2023-04-17T23:15:12.248Z,7.53
2023-04-17T23:17:39.043Z,7.53
2023-04-17T23:20:06.153Z,7.47
2023-04-17T23:22:33.163Z,7.49
2023-04-17T23:25:00.193Z,7.40
2023-04-17T23:27:26.972Z,7.42
2023-04-17T23:29:54.019Z,7.42
2023-04-17T23:32:20.714Z,7.46
2023-04-17T23:34:47.554Z,7.48
2023-04-17T23:37:14.144Z,7.48
2023-04-17T23:39:40.859Z,7.38
2023-04-17T23:42:08.120Z,7.33
2023-04-17T23:44:34.911Z,7.25
2023-04-17T23:47:02.271Z,7.29
2023-04-17T23:49:29.023Z,7.29
2023-04-17T23:51:58.973Z,7.26
2023-04-17T23:54:25.874Z,7.23
2023-04-17T23:56:55.926Z,7.27
2023-04-17T23:59:22.584Z,7.05
